sensor_id;sensor_type;location;lat;lon;timestamp;P1;durP1;ratioP1;P2;durP2;ratioP2
2644;SDS011;15377;48.540;9.268;2023-05-28T00:01:28;9.43;;;4.40;;
2644;SDS011;15377;48.540;9.268;2023-05-28T00:03:54;10.07;;;5.07;;
2644;SDS011;15377;48.540;9.268;2023-05-28T00:06:19;8.67;;;4.00;;
2644;SDS011;15377;48.540;9.268;2023-05-28T00:08:44;12.10;;;5.33;;
2644;SDS011;15377;48.540;9.268;2023-05-28T00:11:10;10.50;;;5.03;;
2644;SDS011;15377;48.540;9.268;2023-05-28T00:13:35;10.47;;;4.83;;
2644;SDS011;15377;48.540;9.268;2023-05-28T00:16:01;9.00;;;4.60;;
2644;SDS011;15377;48.540;9.268;2023-05-28T00:18:26;11.30;;;5.00;;
2644;SDS011;15377;48.540;9.268;2023-05-28T00:20:53;13.83;;;5.30;;
2644;SDS011;15377;48.540;9.268;2023-05-28T00:23:18;16.10;;;6.07;;
2644;SDS011;15377;48.540;9.268;2023-05-28T00:25:44;11.40;;;5.43;;
2644;SDS011;15377;48.540;9.268;2023-05-28T00:28:09;15.67;;;6.27;;
2644;SDS011;15377;48.540;9.268;2023-05-28T00:30:35;10.60;;;5.73;;
2644;SDS011;15377;48.540;9.268;2023-05-28T00:33:00;10.77;;;5.40;;
2644;SDS011;15377;48.540;9.268;2023-05-28T00:35:25;8.20;;;4.47;;
2644;SDS011;15377;48.540;9.268;2023-05-28T00:37:51;8.37;;;4.70;;
2644;SDS011;15377;48.540;9.268;2023-05-28T00:40:17;12.07;;;5.40;;
2644;SDS011;15377;48.540;9.268;2023-05-28T00:42:43;14.10;;;5.00;;
2644;SDS011;15377;48.540;9.268;2023-05-28T00:45:09;10.97;;;5.03;;
2644;SDS011;15377;48.540;9.268;2023-05-28T00:47:36;10.83;;;4.93;;
2644;SDS011;15377;48.540;9.268;2023-05-28T00:50:02;10.70;;;5.70;;
2644;SDS011;15377;48.540;9.268;2023-05-28T00:52:28;9.67;;;4.70;;
2644;SDS011;15377;48.540;9.268;2023-05-28T00:54:54;10.30;;;5.23;;
2644;SDS011;15377;48.540;9.268;2023-05-28T00:57:20;10.00;;;5.37;;
2644;SDS011;15377;48.540;9.268;2023-05-28T00:59:48;8.97;;;4.97;;
2644;SDS011;15377;48.540;9.268;2023-05-28T01:02:15;9.07;;;4.70;;
2644;SDS011;15377;48.540;9.268;2023-05-28T01:04:40;10.70;;;5.40;;
2644;SDS011;15377;48.540;9.268;2023-05-28T01:07:06;9.60;;;5.27;;
2644;SDS011;15377;48.540;9.268;2023-05-28T01:09:31;10.70;;;5.10;;
2644;SDS011;15377;48.540;9.268;2023-05-28T01:11:57;10.80;;;5.20;;
2644;SDS011;15377;48.540;9.268;2023-05-28T01:14:23;13.70;;;5.47;;
2644;SDS011;15377;48.540;9.268;2023-05-28T01:16:49;12.30;;;5.80;;
2644;SDS011;15377;48.540;9.268;2023-05-28T01:19:16;11.90;;;5.93;;
2644;SDS011;15377;48.540;9.268;2023-05-28T01:21:43;9.60;;;4.90;;
2644;SDS011;15377;48.540;9.268;2023-05-28T01:24:10;10.73;;;5.23;;
2644;SDS011;15377;48.540;9.268;2023-05-28T01:26:38;13.83;;;5.30;;
2644;SDS011;15377;48.540;9.268;2023-05-28T01:29:15;9.20;;;4.90;;
2644;SDS011;15377;48.540;9.268;2023-05-28T01:31:42;11.60;;;5.60;;
2644;SDS011;15377;48.540;9.268;2023-05-28T01:34:07;11.73;;;5.43;;
2644;SDS011;15377;48.540;9.268;2023-05-28T01:36:35;11.13;;;6.03;;
2644;SDS011;15377;48.540;9.268;2023-05-28T01:39:03;12.10;;;5.63;;
2644;SDS011;15377;48.540;9.268;2023-05-28T01:41:31;9.57;;;5.43;;
2644;SDS011;15377;48.540;9.268;2023-05-28T01:43:56;11.30;;;6.07;;
2644;SDS011;15377;48.540;9.268;2023-05-28T01:46:24;12.87;;;6.50;;
2644;SDS011;15377;48.540;9.268;2023-05-28T01:48:53;13.40;;;6.60;;
2644;SDS011;15377;48.540;9.268;2023-05-28T01:51:22;11.40;;;5.30;;
2644;SDS011;15377;48.540;9.268;2023-05-28T01:53:48;15.43;;;6.10;;
2644;SDS011;15377;48.540;9.268;2023-05-28T01:56:14;10.77;;;5.23;;
2644;SDS011;15377;48.540;9.268;2023-05-28T01:58:39;16.90;;;6.70;;
2644;SDS011;15377;48.540;9.268;2023-05-28T02:01:18;10.10;;;5.43;;
2644;SDS011;15377;48.540;9.268;2023-05-28T02:03:52;12.67;;;5.80;;
2644;SDS011;15377;48.540;9.268;2023-05-28T02:06:18;12.60;;;6.50;;
2644;SDS011;15377;48.540;9.268;2023-05-28T02:08:44;10.10;;;5.00;;
2644;SDS011;15377;48.540;9.268;2023-05-28T02:11:09;11.60;;;5.70;;
2644;SDS011;15377;48.540;9.268;2023-05-28T02:13:34;9.17;;;5.00;;
2644;SDS011;15377;48.540;9.268;2023-05-28T02:16:00;10.80;;;5.57;;
2644;SDS011;15377;48.540;9.268;2023-05-28T02:18:26;12.60;;;4.93;;
2644;SDS011;15377;48.540;9.268;2023-05-28T02:20:51;11.83;;;5.77;;
2644;SDS011;15377;48.540;9.268;2023-05-28T02:23:16;9.50;;;5.27;;
2644;SDS011;15377;48.540;9.268;2023-05-28T02:25:42;12.50;;;4.93;;
2644;SDS011;15377;48.540;9.268;2023-05-28T02:28:07;9.70;;;5.07;;
2644;SDS011;15377;48.540;9.268;2023-05-28T02:30:32;10.60;;;5.63;;
2644;SDS011;15377;48.540;9.268;2023-05-28T02:32:58;10.67;;;6.20;;
2644;SDS011;15377;48.540;9.268;2023-05-28T02:35:23;15.10;;;6.03;;
2644;SDS011;15377;48.540;9.268;2023-05-28T02:37:49;11.87;;;6.00;;
2644;SDS011;15377;48.540;9.268;2023-05-28T02:40:15;9.87;;;5.53;;
2644;SDS011;15377;48.540;9.268;2023-05-28T02:42:40;12.40;;;4.80;;
2644;SDS011;15377;48.540;9.268;2023-05-28T02:45:06;12.07;;;4.80;;
2644;SDS011;15377;48.540;9.268;2023-05-28T02:47:31;12.07;;;6.87;;
2644;SDS011;15377;48.540;9.268;2023-05-28T02:49:57;11.00;;;5.77;;
2644;SDS011;15377;48.540;9.268;2023-05-28T02:52:22;10.10;;;5.60;;
2644;SDS011;15377;48.540;9.268;2023-05-28T02:54:47;16.87;;;6.10;;
2644;SDS011;15377;48.540;9.268;2023-05-28T02:57:13;9.80;;;5.47;;
2644;SDS011;15377;48.540;9.268;2023-05-28T02:59:38;10.87;;;5.80;;
2644;SDS011;15377;48.540;9.268;2023-05-28T03:02:04;11.23;;;5.53;;
2644;SDS011;15377;48.540;9.268;2023-05-28T03:04:29;10.57;;;6.20;;
2644;SDS011;15377;48.540;9.268;2023-05-28T03:06:54;20.53;;;6.77;;
2644;SDS011;15377;48.540;9.268;2023-05-28T03:09:20;11.53;;;5.80;;
2644;SDS011;15377;48.540;9.268;2023-05-28T03:11:48;14.10;;;5.87;;
2644;SDS011;15377;48.540;9.268;2023-05-28T03:14:14;14.10;;;6.00;;
2644;SDS011;15377;48.540;9.268;2023-05-28T03:16:40;11.00;;;5.80;;
2644;SDS011;15377;48.540;9.268;2023-05-28T03:19:05;11.43;;;5.57;;
2644;SDS011;15377;48.540;9.268;2023-05-28T03:21:31;9.40;;;5.73;;
2644;SDS011;15377;48.540;9.268;2023-05-28T03:23:56;10.50;;;5.40;;
2644;SDS011;15377;48.540;9.268;2023-05-28T03:26:21;10.83;;;4.90;;
2644;SDS011;15377;48.540;9.268;2023-05-28T03:28:47;8.83;;;5.70;;
2644;SDS011;15377;48.540;9.268;2023-05-28T03:31:12;12.03;;;5.40;;
2644;SDS011;15377;48.540;9.268;2023-05-28T03:33:38;12.60;;;5.87;;
2644;SDS011;15377;48.540;9.268;2023-05-28T03:36:03;11.50;;;6.13;;
2644;SDS011;15377;48.540;9.268;2023-05-28T03:38:31;10.47;;;5.60;;
2644;SDS011;15377;48.540;9.268;2023-05-28T03:40:57;10.00;;;5.57;;
2644;SDS011;15377;48.540;9.268;2023-05-28T03:43:22;8.13;;;4.70;;
2644;SDS011;15377;48.540;9.268;2023-05-28T03:45:47;9.77;;;4.93;;
2644;SDS011;15377;48.540;9.268;2023-05-28T03:48:13;11.00;;;5.33;;
2644;SDS011;15377;48.540;9.268;2023-05-28T03:50:38;12.43;;;5.43;;
2644;SDS011;15377;48.540;9.268;2023-05-28T03:53:03;10.70;;;5.30;;
2644;SDS011;15377;48.540;9.268;2023-05-28T03:55:29;12.50;;;5.00;;
2644;SDS011;15377;48.540;9.268;2023-05-28T03:57:54;10.07;;;5.30;;
2644;SDS011;15377;48.540;9.268;2023-05-28T04:00:20;10.23;;;5.00;;
2644;SDS011;15377;48.540;9.268;2023-05-28T04:02:45;14.10;;;5.53;;
2644;SDS011;15377;48.540;9.268;2023-05-28T04:05:11;10.80;;;5.73;;
2644;SDS011;15377;48.540;9.268;2023-05-28T04:07:36;11.93;;;6.07;;
2644;SDS011;15377;48.540;9.268;2023-05-28T04:10:01;8.17;;;4.67;;
2644;SDS011;15377;48.540;9.268;2023-05-28T04:12:27;10.70;;;5.53;;
2644;SDS011;15377;48.540;9.268;2023-05-28T04:14:52;12.47;;;5.33;;
2644;SDS011;15377;48.540;9.268;2023-05-28T04:17:18;14.10;;;5.33;;
2644;SDS011;15377;48.540;9.268;2023-05-28T04:19:43;9.00;;;5.03;;
2644;SDS011;15377;48.540;9.268;2023-05-28T04:22:09;18.60;;;7.00;;
2644;SDS011;15377;48.540;9.268;2023-05-28T04:24:34;9.63;;;5.10;;
2644;SDS011;15377;48.540;9.268;2023-05-28T04:27:00;14.63;;;5.30;;
2644;SDS011;15377;48.540;9.268;2023-05-28T04:29:25;12.13;;;5.30;;
2644;SDS011;15377;48.540;9.268;2023-05-28T04:31:53;9.83;;;5.27;;
2644;SDS011;15377;48.540;9.268;2023-05-28T04:34:19;11.97;;;4.93;;
2644;SDS011;15377;48.540;9.268;2023-05-28T04:36:46;10.80;;;5.27;;
2644;SDS011;15377;48.540;9.268;2023-05-28T04:39:13;9.27;;;4.57;;
2644;SDS011;15377;48.540;9.268;2023-05-28T04:41:39;15.73;;;6.77;;
2644;SDS011;15377;48.540;9.268;2023-05-28T04:44:05;10.23;;;5.10;;
2644;SDS011;15377;48.540;9.268;2023-05-28T04:46:30;11.23;;;5.50;;
2644;SDS011;15377;48.540;9.268;2023-05-28T04:48:55;8.90;;;4.33;;
2644;SDS011;15377;48.540;9.268;2023-05-28T04:51:21;11.30;;;4.70;;
2644;SDS011;15377;48.540;9.268;2023-05-28T04:53:47;10.83;;;5.40;;
2644;SDS011;15377;48.540;9.268;2023-05-28T04:56:12;11.90;;;4.80;;
2644;SDS011;15377;48.540;9.268;2023-05-28T04:58:39;13.50;;;4.90;;
2644;SDS011;15377;48.540;9.268;2023-05-28T05:01:05;9.27;;;5.40;;
2644;SDS011;15377;48.540;9.268;2023-05-28T05:03:32;11.27;;;4.50;;
2644;SDS011;15377;48.540;9.268;2023-05-28T05:05:58;12.03;;;5.57;;
2644;SDS011;15377;48.540;9.268;2023-05-28T05:08:23;9.23;;;4.50;;
2644;SDS011;15377;48.540;9.268;2023-05-28T05:10:48;10.97;;;5.90;;
2644;SDS011;15377;48.540;9.268;2023-05-28T05:13:14;9.53;;;4.53;;
2644;SDS011;15377;48.540;9.268;2023-05-28T05:15:39;10.10;;;5.57;;
2644;SDS011;15377;48.540;9.268;2023-05-28T05:18:05;9.27;;;5.13;;
2644;SDS011;15377;48.540;9.268;2023-05-28T05:20:31;9.10;;;4.83;;
2644;SDS011;15377;48.540;9.268;2023-05-28T05:22:56;11.60;;;5.37;;
2644;SDS011;15377;48.540;9.268;2023-05-28T05:25:22;10.40;;;4.60;;
2644;SDS011;15377;48.540;9.268;2023-05-28T05:27:48;10.33;;;5.63;;
2644;SDS011;15377;48.540;9.268;2023-05-28T05:30:15;10.13;;;5.30;;
2644;SDS011;15377;48.540;9.268;2023-05-28T05:32:40;12.60;;;6.40;;
2644;SDS011;15377;48.540;9.268;2023-05-28T05:35:06;8.93;;;5.57;;
2644;SDS011;15377;48.540;9.268;2023-05-28T05:37:32;11.60;;;6.93;;
2644;SDS011;15377;48.540;9.268;2023-05-28T05:39:57;12.67;;;6.27;;
2644;SDS011;15377;48.540;9.268;2023-05-28T05:42:22;14.30;;;7.30;;
2644;SDS011;15377;48.540;9.268;2023-05-28T05:44:48;11.73;;;6.23;;
2644;SDS011;15377;48.540;9.268;2023-05-28T05:47:13;12.67;;;7.40;;
2644;SDS011;15377;48.540;9.268;2023-05-28T05:49:38;12.90;;;7.43;;
2644;SDS011;15377;48.540;9.268;2023-05-28T05:52:04;11.30;;;6.70;;
2644;SDS011;15377;48.540;9.268;2023-05-28T05:54:29;11.63;;;6.77;;
2644;SDS011;15377;48.540;9.268;2023-05-28T05:56:55;13.87;;;6.20;;
2644;SDS011;15377;48.540;9.268;2023-05-28T05:59:20;11.83;;;6.73;;
2644;SDS011;15377;48.540;9.268;2023-05-28T06:01:45;14.47;;;7.00;;
2644;SDS011;15377;48.540;9.268;2023-05-28T06:04:11;11.33;;;7.30;;
2644;SDS011;15377;48.540;9.268;2023-05-28T06:06:36;11.97;;;6.50;;
2644;SDS011;15377;48.540;9.268;2023-05-28T06:09:03;13.20;;;6.90;;
2644;SDS011;15377;48.540;9.268;2023-05-28T06:11:29;11.10;;;6.30;;
2644;SDS011;15377;48.540;9.268;2023-05-28T06:13:55;13.50;;;6.53;;
2644;SDS011;15377;48.540;9.268;2023-05-28T06:16:20;13.67;;;6.97;;
2644;SDS011;15377;48.540;9.268;2023-05-28T06:18:46;16.27;;;8.30;;
2644;SDS011;15377;48.540;9.268;2023-05-28T06:21:12;18.27;;;10.03;;
2644;SDS011;15377;48.540;9.268;2023-05-28T06:23:37;12.47;;;7.27;;
2644;SDS011;15377;48.540;9.268;2023-05-28T06:26:03;11.60;;;7.03;;
2644;SDS011;15377;48.540;9.268;2023-05-28T06:28:28;11.97;;;6.60;;
2644;SDS011;15377;48.540;9.268;2023-05-28T06:30:54;13.50;;;8.57;;
2644;SDS011;15377;48.540;9.268;2023-05-28T06:33:19;17.20;;;8.70;;
2644;SDS011;15377;48.540;9.268;2023-05-28T06:35:45;11.40;;;7.03;;
2644;SDS011;15377;48.540;9.268;2023-05-28T06:38:11;12.10;;;6.80;;
2644;SDS011;15377;48.540;9.268;2023-05-28T06:40:36;12.20;;;6.20;;
2644;SDS011;15377;48.540;9.268;2023-05-28T06:43:01;11.30;;;6.60;;
2644;SDS011;15377;48.540;9.268;2023-05-28T06:45:27;10.60;;;6.40;;
2644;SDS011;15377;48.540;9.268;2023-05-28T06:47:53;9.73;;;6.10;;
2644;SDS011;15377;48.540;9.268;2023-05-28T06:50:19;11.83;;;5.87;;
2644;SDS011;15377;48.540;9.268;2023-05-28T06:52:44;9.80;;;5.83;;
2644;SDS011;15377;48.540;9.268;2023-05-28T06:55:10;11.90;;;5.47;;
2644;SDS011;15377;48.540;9.268;2023-05-28T06:57:35;11.60;;;5.70;;
2644;SDS011;15377;48.540;9.268;2023-05-28T07:00:04;9.83;;;5.40;;
2644;SDS011;15377;48.540;9.268;2023-05-28T07:02:38;10.63;;;5.30;;
2644;SDS011;15377;48.540;9.268;2023-05-28T07:05:03;14.07;;;5.43;;
2644;SDS011;15377;48.540;9.268;2023-05-28T07:07:30;9.80;;;6.00;;
2644;SDS011;15377;48.540;9.268;2023-05-28T07:09:58;10.43;;;5.80;;
2644;SDS011;15377;48.540;9.268;2023-05-28T07:12:23;12.07;;;4.97;;
2644;SDS011;15377;48.540;9.268;2023-05-28T07:15:06;11.30;;;6.57;;
2644;SDS011;15377;48.540;9.268;2023-05-28T07:17:32;17.67;;;10.40;;
2644;SDS011;15377;48.540;9.268;2023-05-28T07:19:58;11.87;;;6.30;;
2644;SDS011;15377;48.540;9.268;2023-05-28T07:22:23;10.03;;;5.43;;
2644;SDS011;15377;48.540;9.268;2023-05-28T07:24:50;9.80;;;6.10;;
2644;SDS011;15377;48.540;9.268;2023-05-28T07:27:15;10.63;;;5.37;;
2644;SDS011;15377;48.540;9.268;2023-05-28T07:29:41;9.73;;;5.53;;
2644;SDS011;15377;48.540;9.268;2023-05-28T07:32:06;9.83;;;4.80;;
2644;SDS011;15377;48.540;9.268;2023-05-28T07:34:32;10.07;;;5.67;;
2644;SDS011;15377;48.540;9.268;2023-05-28T07:36:57;10.37;;;5.50;;
2644;SDS011;15377;48.540;9.268;2023-05-28T07:39:22;9.70;;;4.73;;
2644;SDS011;15377;48.540;9.268;2023-05-28T07:41:48;8.03;;;4.67;;
2644;SDS011;15377;48.540;9.268;2023-05-28T07:44:13;10.63;;;5.17;;
2644;SDS011;15377;48.540;9.268;2023-05-28T07:46:42;8.93;;;4.20;;
2644;SDS011;15377;48.540;9.268;2023-05-28T07:49:07;11.63;;;5.87;;
2644;SDS011;15377;48.540;9.268;2023-05-28T07:51:33;9.47;;;4.50;;
2644;SDS011;15377;48.540;9.268;2023-05-28T07:53:58;11.43;;;5.00;;
2644;SDS011;15377;48.540;9.268;2023-05-28T07:56:23;9.60;;;4.70;;
2644;SDS011;15377;48.540;9.268;2023-05-28T07:58:49;8.97;;;4.37;;
2644;SDS011;15377;48.540;9.268;2023-05-28T08:01:14;13.63;;;5.30;;
2644;SDS011;15377;48.540;9.268;2023-05-28T08:03:40;15.83;;;4.90;;
2644;SDS011;15377;48.540;9.268;2023-05-28T08:06:06;12.30;;;5.60;;
2644;SDS011;15377;48.540;9.268;2023-05-28T08:08:32;9.33;;;4.67;;
2644;SDS011;15377;48.540;9.268;2023-05-28T08:10:57;9.40;;;4.67;;
2644;SDS011;15377;48.540;9.268;2023-05-28T08:13:23;9.73;;;4.80;;
2644;SDS011;15377;48.540;9.268;2023-05-28T08:15:48;10.37;;;4.63;;
2644;SDS011;15377;48.540;9.268;2023-05-28T08:18:14;7.83;;;4.33;;
2644;SDS011;15377;48.540;9.268;2023-05-28T08:20:39;8.27;;;4.30;;
2644;SDS011;15377;48.540;9.268;2023-05-28T08:23:05;20.20;;;9.43;;
2644;SDS011;15377;48.540;9.268;2023-05-28T08:25:32;18.43;;;11.17;;
2644;SDS011;15377;48.540;9.268;2023-05-28T08:27:58;15.23;;;6.00;;
2644;SDS011;15377;48.540;9.268;2023-05-28T08:30:23;10.80;;;5.17;;
2644;SDS011;15377;48.540;9.268;2023-05-28T08:32:48;7.93;;;4.10;;
2644;SDS011;15377;48.540;9.268;2023-05-28T08:35:14;7.80;;;4.30;;
2644;SDS011;15377;48.540;9.268;2023-05-28T08:37:40;10.27;;;4.90;;
2644;SDS011;15377;48.540;9.268;2023-05-28T08:40:05;10.77;;;4.90;;
2644;SDS011;15377;48.540;9.268;2023-05-28T08:42:34;7.93;;;3.70;;
2644;SDS011;15377;48.540;9.268;2023-05-28T08:45:00;9.00;;;4.60;;
2644;SDS011;15377;48.540;9.268;2023-05-28T08:47:26;9.00;;;4.80;;
2644;SDS011;15377;48.540;9.268;2023-05-28T08:49:56;8.17;;;4.00;;
2644;SDS011;15377;48.540;9.268;2023-05-28T08:52:24;12.43;;;5.27;;
2644;SDS011;15377;48.540;9.268;2023-05-28T08:54:50;8.97;;;4.40;;
2644;SDS011;15377;48.540;9.268;2023-05-28T08:57:16;8.77;;;4.70;;
2644;SDS011;15377;48.540;9.268;2023-05-28T08:59:43;9.77;;;4.30;;
2644;SDS011;15377;48.540;9.268;2023-05-28T09:02:10;11.80;;;4.83;;
2644;SDS011;15377;48.540;9.268;2023-05-28T09:04:36;9.30;;;4.20;;
2644;SDS011;15377;48.540;9.268;2023-05-28T09:07:01;12.57;;;5.03;;
2644;SDS011;15377;48.540;9.268;2023-05-28T09:09:27;9.23;;;4.30;;
2644;SDS011;15377;48.540;9.268;2023-05-28T09:12:03;12.53;;;4.50;;
2644;SDS011;15377;48.540;9.268;2023-05-28T09:14:37;12.30;;;6.23;;
2644;SDS011;15377;48.540;9.268;2023-05-28T09:17:06;9.20;;;4.90;;
2644;SDS011;15377;48.540;9.268;2023-05-28T09:19:35;9.10;;;5.00;;
2644;SDS011;15377;48.540;9.268;2023-05-28T09:22:01;9.80;;;4.40;;
2644;SDS011;15377;48.540;9.268;2023-05-28T09:24:28;9.77;;;4.47;;
2644;SDS011;15377;48.540;9.268;2023-05-28T09:26:56;10.77;;;5.43;;
2644;SDS011;15377;48.540;9.268;2023-05-28T09:29:22;9.37;;;4.30;;
2644;SDS011;15377;48.540;9.268;2023-05-28T09:34:25;8.10;;;4.23;;
2644;SDS011;15377;48.540;9.268;2023-05-28T09:36:51;9.47;;;5.10;;
2644;SDS011;15377;48.540;9.268;2023-05-28T09:39:17;8.40;;;4.70;;
2644;SDS011;15377;48.540;9.268;2023-05-28T09:41:43;10.47;;;5.27;;
2644;SDS011;15377;48.540;9.268;2023-05-28T09:44:09;9.20;;;4.73;;
2644;SDS011;15377;48.540;9.268;2023-05-28T09:46:35;8.80;;;4.10;;
2644;SDS011;15377;48.540;9.268;2023-05-28T09:49:01;13.57;;;6.00;;
2644;SDS011;15377;48.540;9.268;2023-05-28T09:51:29;12.67;;;5.03;;
2644;SDS011;15377;48.540;9.268;2023-05-28T09:53:57;9.00;;;4.33;;
2644;SDS011;15377;48.540;9.268;2023-05-28T09:56:27;9.83;;;4.40;;
2644;SDS011;15377;48.540;9.268;2023-05-28T09:58:57;9.47;;;4.40;;
2644;SDS011;15377;48.540;9.268;2023-05-28T10:01:31;10.03;;;4.50;;
2644;SDS011;15377;48.540;9.268;2023-05-28T10:04:05;9.13;;;4.00;;
2644;SDS011;15377;48.540;9.268;2023-05-28T10:06:33;10.67;;;4.70;;
2644;SDS011;15377;48.540;9.268;2023-05-28T10:09:00;9.03;;;4.57;;
2644;SDS011;15377;48.540;9.268;2023-05-28T10:11:28;10.57;;;5.13;;
2644;SDS011;15377;48.540;9.268;2023-05-28T10:13:56;10.00;;;4.20;;
2644;SDS011;15377;48.540;9.268;2023-05-28T10:16:22;9.93;;;4.63;;
2644;SDS011;15377;48.540;9.268;2023-05-28T10:18:47;12.00;;;5.33;;
2644;SDS011;15377;48.540;9.268;2023-05-28T10:21:13;8.50;;;4.60;;
2644;SDS011;15377;48.540;9.268;2023-05-28T10:23:40;11.67;;;3.97;;
2644;SDS011;15377;48.540;9.268;2023-05-28T10:26:07;8.23;;;4.27;;
2644;SDS011;15377;48.540;9.268;2023-05-28T10:28:33;9.33;;;4.00;;
2644;SDS011;15377;48.540;9.268;2023-05-28T10:31:08;8.00;;;4.43;;
2644;SDS011;15377;48.540;9.268;2023-05-28T10:33:41;8.80;;;4.53;;
2644;SDS011;15377;48.540;9.268;2023-05-28T10:36:09;8.80;;;4.33;;
2644;SDS011;15377;48.540;9.268;2023-05-28T10:38:58;8.13;;;4.23;;
2644;SDS011;15377;48.540;9.268;2023-05-28T10:41:27;8.87;;;4.10;;
2644;SDS011;15377;48.540;9.268;2023-05-28T10:43:58;10.93;;;6.00;;
2644;SDS011;15377;48.540;9.268;2023-05-28T10:46:37;8.57;;;4.33;;
2644;SDS011;15377;48.540;9.268;2023-05-28T10:54:38;8.00;;;3.93;;
2644;SDS011;15377;48.540;9.268;2023-05-28T10:59:53;8.37;;;4.30;;
2644;SDS011;15377;48.540;9.268;2023-05-28T11:02:24;8.30;;;4.33;;
2644;SDS011;15377;48.540;9.268;2023-05-28T11:04:52;7.30;;;3.70;;
2644;SDS011;15377;48.540;9.268;2023-05-28T11:07:19;9.67;;;4.27;;
2644;SDS011;15377;48.540;9.268;2023-05-28T11:09:49;8.73;;;4.23;;
2644;SDS011;15377;48.540;9.268;2023-05-28T11:12:17;6.87;;;3.50;;
2644;SDS011;15377;48.540;9.268;2023-05-28T11:14:44;8.00;;;4.10;;
2644;SDS011;15377;48.540;9.268;2023-05-28T11:17:10;9.53;;;3.53;;
2644;SDS011;15377;48.540;9.268;2023-05-28T11:19:40;6.80;;;4.00;;
2644;SDS011;15377;48.540;9.268;2023-05-28T11:22:16;8.60;;;4.07;;
2644;SDS011;15377;48.540;9.268;2023-05-28T11:24:58;10.43;;;3.70;;
2644;SDS011;15377;48.540;9.268;2023-05-28T11:27:29;7.80;;;4.00;;
2644;SDS011;15377;48.540;9.268;2023-05-28T11:29:58;6.90;;;3.57;;
2644;SDS011;15377;48.540;9.268;2023-05-28T11:32:26;7.20;;;3.90;;
2644;SDS011;15377;48.540;9.268;2023-05-28T11:34:53;9.87;;;3.60;;
2644;SDS011;15377;48.540;9.268;2023-05-28T11:37:37;10.87;;;4.03;;
2644;SDS011;15377;48.540;9.268;2023-05-28T11:40:05;9.23;;;3.80;;
2644;SDS011;15377;48.540;9.268;2023-05-28T11:42:35;8.27;;;3.63;;
2644;SDS011;15377;48.540;9.268;2023-05-28T11:45:00;6.80;;;3.57;;
2644;SDS011;15377;48.540;9.268;2023-05-28T11:47:26;7.20;;;3.77;;
2644;SDS011;15377;48.540;9.268;2023-05-28T11:49:51;7.93;;;3.90;;
2644;SDS011;15377;48.540;9.268;2023-05-28T11:52:18;8.03;;;3.90;;
2644;SDS011;15377;48.540;9.268;2023-05-28T11:54:46;8.70;;;4.10;;
2644;SDS011;15377;48.540;9.268;2023-05-28T11:57:16;6.77;;;3.77;;
2644;SDS011;15377;48.540;9.268;2023-05-28T12:00:02;9.67;;;3.93;;
2644;SDS011;15377;48.540;9.268;2023-05-28T12:02:56;13.83;;;4.67;;
2644;SDS011;15377;48.540;9.268;2023-05-28T12:05:21;9.50;;;4.83;;
2644;SDS011;15377;48.540;9.268;2023-05-28T12:07:51;7.20;;;3.30;;
2644;SDS011;15377;48.540;9.268;2023-05-28T12:10:18;6.93;;;3.83;;
2644;SDS011;15377;48.540;9.268;2023-05-28T12:12:48;7.90;;;4.27;;
2644;SDS011;15377;48.540;9.268;2023-05-28T12:15:15;8.07;;;3.73;;
2644;SDS011;15377;48.540;9.268;2023-05-28T12:17:42;10.00;;;4.23;;
2644;SDS011;15377;48.540;9.268;2023-05-28T12:22:37;6.73;;;3.93;;
2644;SDS011;15377;48.540;9.268;2023-05-28T12:25:03;8.60;;;3.90;;
2644;SDS011;15377;48.540;9.268;2023-05-28T12:27:29;8.03;;;4.03;;
2644;SDS011;15377;48.540;9.268;2023-05-28T12:29:55;7.60;;;3.80;;
2644;SDS011;15377;48.540;9.268;2023-05-28T12:32:20;8.40;;;4.33;;
2644;SDS011;15377;48.540;9.268;2023-05-28T12:34:45;7.77;;;3.60;;
2644;SDS011;15377;48.540;9.268;2023-05-28T12:37:11;10.87;;;4.70;;
2644;SDS011;15377;48.540;9.268;2023-05-28T12:39:37;12.17;;;8.30;;
2644;SDS011;15377;48.540;9.268;2023-05-28T12:42:02;9.07;;;4.23;;
2644;SDS011;15377;48.540;9.268;2023-05-28T12:44:28;6.87;;;3.60;;
2644;SDS011;15377;48.540;9.268;2023-05-28T12:46:54;12.33;;;6.03;;
2644;SDS011;15377;48.540;9.268;2023-05-28T12:49:19;10.83;;;5.43;;
2644;SDS011;15377;48.540;9.268;2023-05-28T12:51:45;9.07;;;4.80;;
2644;SDS011;15377;48.540;9.268;2023-05-28T12:54:10;7.90;;;3.87;;
2644;SDS011;15377;48.540;9.268;2023-05-28T12:56:35;12.20;;;6.97;;
2644;SDS011;15377;48.540;9.268;2023-05-28T12:59:01;8.20;;;3.83;;
2644;SDS011;15377;48.540;9.268;2023-05-28T13:01:26;8.00;;;4.53;;
2644;SDS011;15377;48.540;9.268;2023-05-28T13:03:51;8.47;;;4.47;;
2644;SDS011;15377;48.540;9.268;2023-05-28T13:06:17;8.50;;;4.27;;
2644;SDS011;15377;48.540;9.268;2023-05-28T13:08:43;8.47;;;4.33;;
2644;SDS011;15377;48.540;9.268;2023-05-28T13:11:08;9.43;;;4.70;;
2644;SDS011;15377;48.540;9.268;2023-05-28T13:13:34;8.63;;;4.43;;
2644;SDS011;15377;48.540;9.268;2023-05-28T13:15:59;9.37;;;5.13;;
2644;SDS011;15377;48.540;9.268;2023-05-28T13:18:25;8.03;;;4.33;;
2644;SDS011;15377;48.540;9.268;2023-05-28T13:20:50;8.23;;;4.10;;
2644;SDS011;15377;48.540;9.268;2023-05-28T13:23:16;9.70;;;4.60;;
2644;SDS011;15377;48.540;9.268;2023-05-28T13:25:41;9.20;;;4.43;;
2644;SDS011;15377;48.540;9.268;2023-05-28T13:28:06;9.63;;;4.90;;
2644;SDS011;15377;48.540;9.268;2023-05-28T13:30:32;7.97;;;3.83;;
2644;SDS011;15377;48.540;9.268;2023-05-28T13:32:57;7.87;;;4.50;;
2644;SDS011;15377;48.540;9.268;2023-05-28T13:35:23;7.90;;;4.47;;
2644;SDS011;15377;48.540;9.268;2023-05-28T13:37:49;7.47;;;4.40;;
2644;SDS011;15377;48.540;9.268;2023-05-28T13:40:15;8.57;;;5.00;;
2644;SDS011;15377;48.540;9.268;2023-05-28T13:42:40;7.63;;;4.40;;
2644;SDS011;15377;48.540;9.268;2023-05-28T13:45:06;9.90;;;4.90;;
2644;SDS011;15377;48.540;9.268;2023-05-28T13:47:32;9.60;;;4.60;;
2644;SDS011;15377;48.540;9.268;2023-05-28T13:49:58;8.73;;;4.30;;
2644;SDS011;15377;48.540;9.268;2023-05-28T13:52:23;9.03;;;4.27;;
2644;SDS011;15377;48.540;9.268;2023-05-28T13:54:49;10.47;;;5.03;;
2644;SDS011;15377;48.540;9.268;2023-05-28T13:57:18;9.33;;;4.67;;
2644;SDS011;15377;48.540;9.268;2023-05-28T13:59:45;9.97;;;4.90;;
2644;SDS011;15377;48.540;9.268;2023-05-28T14:02:10;7.93;;;4.40;;
2644;SDS011;15377;48.540;9.268;2023-05-28T14:04:36;10.00;;;5.27;;
2644;SDS011;15377;48.540;9.268;2023-05-28T14:07:01;10.83;;;4.87;;
2644;SDS011;15377;48.540;9.268;2023-05-28T14:09:26;7.30;;;4.20;;
2644;SDS011;15377;48.540;9.268;2023-05-28T14:11:52;9.00;;;4.53;;
2644;SDS011;15377;48.540;9.268;2023-05-28T14:14:17;10.53;;;5.10;;
2644;SDS011;15377;48.540;9.268;2023-05-28T14:16:43;9.00;;;4.67;;
2644;SDS011;15377;48.540;9.268;2023-05-28T14:19:08;9.10;;;4.40;;
2644;SDS011;15377;48.540;9.268;2023-05-28T14:21:33;10.00;;;4.70;;
2644;SDS011;15377;48.540;9.268;2023-05-28T14:24:00;8.37;;;4.40;;
2644;SDS011;15377;48.540;9.268;2023-05-28T14:26:25;10.07;;;4.47;;
2644;SDS011;15377;48.540;9.268;2023-05-28T14:28:50;8.03;;;4.67;;
2644;SDS011;15377;48.540;9.268;2023-05-28T14:31:16;7.40;;;4.70;;
2644;SDS011;15377;48.540;9.268;2023-05-28T14:33:41;8.47;;;4.37;;
2644;SDS011;15377;48.540;9.268;2023-05-28T14:36:07;11.40;;;4.40;;
2644;SDS011;15377;48.540;9.268;2023-05-28T14:38:32;8.47;;;4.07;;
2644;SDS011;15377;48.540;9.268;2023-05-28T14:40:57;7.80;;;4.00;;
2644;SDS011;15377;48.540;9.268;2023-05-28T14:43:23;7.87;;;4.10;;
2644;SDS011;15377;48.540;9.268;2023-05-28T14:45:48;8.93;;;4.63;;
2644;SDS011;15377;48.540;9.268;2023-05-28T14:48:13;9.60;;;4.87;;
2644;SDS011;15377;48.540;9.268;2023-05-28T14:50:39;7.40;;;3.70;;
2644;SDS011;15377;48.540;9.268;2023-05-28T14:53:04;8.57;;;4.53;;
2644;SDS011;15377;48.540;9.268;2023-05-28T14:55:29;7.50;;;4.07;;
2644;SDS011;15377;48.540;9.268;2023-05-28T14:57:55;8.53;;;4.10;;
2644;SDS011;15377;48.540;9.268;2023-05-28T15:00:20;9.73;;;4.80;;
2644;SDS011;15377;48.540;9.268;2023-05-28T15:02:45;12.27;;;6.47;;